sensor_id;sensor_type;location;lat;lon;timestamp;temperature;humidity
65239;SHT30;51827;51.186;6.926;2024-02-28T00:00:48;19.26;51.61
65239;SHT30;51827;51.186;6.926;2024-02-28T00:01:52;19.26;51.57
65239;SHT30;51827;51.186;6.926;2024-02-28T00:02:53;19.24;51.60
65239;SHT30;51827;51.186;6.926;2024-02-28T00:03:53;19.26;51.62
65239;SHT30;51827;51.186;6.926;2024-02-28T00:04:53;19.24;51.57
65239;SHT30;51827;51.186;6.926;2024-02-28T00:05:53;19.24;51.57
65239;SHT30;51827;51.186;6.926;2024-02-28T00:06:54;19.23;51.56
65239;SHT30;51827;51.186;6.926;2024-02-28T00:07:54;19.22;51.56
65239;SHT30;51827;51.186;6.926;2024-02-28T00:08:54;19.24;51.54
65239;SHT30;51827;51.186;6.926;2024-02-28T00:09:54;19.22;51.54
65239;SHT30;51827;51.186;6.926;2024-02-28T00:10:55;19.23;51.54
65239;SHT30;51827;51.186;6.926;2024-02-28T00:11:55;19.24;51.51
65239;SHT30;51827;51.186;6.926;2024-02-28T00:12:55;19.23;51.49
65239;SHT30;51827;51.186;6.926;2024-02-28T00:13:55;19.24;51.48
65239;SHT30;51827;51.186;6.926;2024-02-28T00:14:56;19.24;51.53
65239;SHT30;51827;51.186;6.926;2024-02-28T00:15:56;19.26;51.49
65239;SHT30;51827;51.186;6.926;2024-02-28T00:16:56;19.24;51.46
65239;SHT30;51827;51.186;6.926;2024-02-28T00:17:56;19.23;51.48
65239;SHT30;51827;51.186;6.926;2024-02-28T00:18:57;19.24;51.51
65239;SHT30;51827;51.186;6.926;2024-02-28T00:19:57;19.23;51.50
65239;SHT30;51827;51.186;6.926;2024-02-28T00:20:57;19.22;51.51
65239;SHT30;51827;51.186;6.926;2024-02-28T00:21:57;19.23;51.47
65239;SHT30;51827;51.186;6.926;2024-02-28T00:22:58;19.22;51.54
65239;SHT30;51827;51.186;6.926;2024-02-28T00:23:58;19.22;51.52
65239;SHT30;51827;51.186;6.926;2024-02-28T00:24:58;19.22;51.48
65239;SHT30;51827;51.186;6.926;2024-02-28T00:25:58;19.19;51.43
65239;SHT30;51827;51.186;6.926;2024-02-28T00:26:59;19.22;51.44
65239;SHT30;51827;51.186;6.926;2024-02-28T00:27:59;19.23;51.39
65239;SHT30;51827;51.186;6.926;2024-02-28T00:28:59;19.23;51.38
65239;SHT30;51827;51.186;6.926;2024-02-28T00:29:59;19.22;51.39
65239;SHT30;51827;51.186;6.926;2024-02-28T00:31:00;19.22;51.38
65239;SHT30;51827;51.186;6.926;2024-02-28T00:32:00;19.20;51.36
65239;SHT30;51827;51.186;6.926;2024-02-28T00:33:00;19.23;51.34
65239;SHT30;51827;51.186;6.926;2024-02-28T00:34:00;19.22;51.32
65239;SHT30;51827;51.186;6.926;2024-02-28T00:35:01;19.20;51.31
65239;SHT30;51827;51.186;6.926;2024-02-28T00:36:01;19.20;51.29
65239;SHT30;51827;51.186;6.926;2024-02-28T00:37:02;19.19;51.29
65239;SHT30;51827;51.186;6.926;2024-02-28T00:38:02;19.19;51.30
65239;SHT30;51827;51.186;6.926;2024-02-28T00:39:02;19.16;51.30
65239;SHT30;51827;51.186;6.926;2024-02-28T00:40:03;19.18;51.29
65239;SHT30;51827;51.186;6.926;2024-02-28T00:41:03;19.16;51.28
65239;SHT30;51827;51.186;6.926;2024-02-28T00:42:03;19.18;51.25
65239;SHT30;51827;51.186;6.926;2024-02-28T00:43:04;19.19;51.27
65239;SHT30;51827;51.186;6.926;2024-02-28T00:44:04;19.18;51.21
65239;SHT30;51827;51.186;6.926;2024-02-28T00:45:05;19.18;51.19
65239;SHT30;51827;51.186;6.926;2024-02-28T00:46:05;19.19;51.24
65239;SHT30;51827;51.186;6.926;2024-02-28T00:47:05;19.18;51.23
65239;SHT30;51827;51.186;6.926;2024-02-28T00:48:06;19.19;51.17
65239;SHT30;51827;51.186;6.926;2024-02-28T00:49:06;19.19;51.18
65239;SHT30;51827;51.186;6.926;2024-02-28T00:50:07;19.18;51.16
65239;SHT30;51827;51.186;6.926;2024-02-28T00:51:07;19.19;51.19
65239;SHT30;51827;51.186;6.926;2024-02-28T00:52:07;19.18;51.19
65239;SHT30;51827;51.186;6.926;2024-02-28T00:53:08;19.18;51.17
65239;SHT30;51827;51.186;6.926;2024-02-28T00:54:08;19.16;51.14
65239;SHT30;51827;51.186;6.926;2024-02-28T00:55:08;19.18;51.15
65239;SHT30;51827;51.186;6.926;2024-02-28T00:56:08;19.19;51.17
65239;SHT30;51827;51.186;6.926;2024-02-28T00:57:09;19.15;51.11
65239;SHT30;51827;51.186;6.926;2024-02-28T00:58:10;19.13;51.16
65239;SHT30;51827;51.186;6.926;2024-02-28T00:59:10;19.15;51.14
65239;SHT30;51827;51.186;6.926;2024-02-28T01:00:11;19.15;51.08
65239;SHT30;51827;51.186;6.926;2024-02-28T01:01:11;19.13;51.10
65239;SHT30;51827;51.186;6.926;2024-02-28T01:02:12;19.16;51.08
65239;SHT30;51827;51.186;6.926;2024-02-28T01:03:12;19.15;51.08
65239;SHT30;51827;51.186;6.926;2024-02-28T01:04:12;19.13;51.08
65239;SHT30;51827;51.186;6.926;2024-02-28T01:05:12;19.16;51.07
65239;SHT30;51827;51.186;6.926;2024-02-28T01:06:13;19.16;51.05
65239;SHT30;51827;51.186;6.926;2024-02-28T01:07:13;19.15;51.08
65239;SHT30;51827;51.186;6.926;2024-02-28T01:08:13;19.16;51.03
65239;SHT30;51827;51.186;6.926;2024-02-28T01:09:14;19.13;51.10
65239;SHT30;51827;51.186;6.926;2024-02-28T01:10:14;19.15;51.09
65239;SHT30;51827;51.186;6.926;2024-02-28T01:11:15;19.16;51.11
65239;SHT30;51827;51.186;6.926;2024-02-28T01:12:15;19.15;51.08
65239;SHT30;51827;51.186;6.926;2024-02-28T01:13:15;19.13;51.07
65239;SHT30;51827;51.186;6.926;2024-02-28T01:14:16;19.16;51.06
65239;SHT30;51827;51.186;6.926;2024-02-28T01:15:16;19.15;51.08
65239;SHT30;51827;51.186;6.926;2024-02-28T01:16:16;19.15;51.08
65239;SHT30;51827;51.186;6.926;2024-02-28T01:17:16;19.15;51.05
65239;SHT30;51827;51.186;6.926;2024-02-28T01:18:17;19.16;51.10
65239;SHT30;51827;51.186;6.926;2024-02-28T01:19:17;19.15;51.08
65239;SHT30;51827;51.186;6.926;2024-02-28T01:20:17;19.13;51.12
65239;SHT30;51827;51.186;6.926;2024-02-28T01:21:17;19.15;51.08
65239;SHT30;51827;51.186;6.926;2024-02-28T01:22:18;19.13;51.08
65239;SHT30;51827;51.186;6.926;2024-02-28T01:23:18;19.15;51.06
65239;SHT30;51827;51.186;6.926;2024-02-28T01:24:18;19.16;51.08
65239;SHT30;51827;51.186;6.926;2024-02-28T01:25:18;19.13;51.07
65239;SHT30;51827;51.186;6.926;2024-02-28T01:26:19;19.13;51.07
65239;SHT30;51827;51.186;6.926;2024-02-28T01:27:19;19.12;51.06
65239;SHT30;51827;51.186;6.926;2024-02-28T01:28:19;19.12;51.06
65239;SHT30;51827;51.186;6.926;2024-02-28T01:29:19;19.10;51.09
65239;SHT30;51827;51.186;6.926;2024-02-28T01:30:20;19.12;51.06
65239;SHT30;51827;51.186;6.926;2024-02-28T01:31:20;19.10;51.09
65239;SHT30;51827;51.186;6.926;2024-02-28T01:32:20;19.12;51.12
65239;SHT30;51827;51.186;6.926;2024-02-28T01:33:20;19.12;51.08
65239;SHT30;51827;51.186;6.926;2024-02-28T01:34:21;19.10;51.10
65239;SHT30;51827;51.186;6.926;2024-02-28T01:35:21;19.10;51.08
65239;SHT30;51827;51.186;6.926;2024-02-28T01:36:21;19.10;51.07
65239;SHT30;51827;51.186;6.926;2024-02-28T01:37:21;19.10;51.09
65239;SHT30;51827;51.186;6.926;2024-02-28T01:38:22;19.09;51.09
65239;SHT30;51827;51.186;6.926;2024-02-28T01:39:22;19.12;51.12
65239;SHT30;51827;51.186;6.926;2024-02-28T01:40:23;19.10;51.09
65239;SHT30;51827;51.186;6.926;2024-02-28T01:41:23;19.09;51.09
65239;SHT30;51827;51.186;6.926;2024-02-28T01:42:23;19.12;51.08
65239;SHT30;51827;51.186;6.926;2024-02-28T01:43:23;19.12;51.04
65239;SHT30;51827;51.186;6.926;2024-02-28T01:44:24;19.13;51.08
65239;SHT30;51827;51.186;6.926;2024-02-28T01:45:24;19.10;51.07
65239;SHT30;51827;51.186;6.926;2024-02-28T01:46:28;19.10;51.04
65239;SHT30;51827;51.186;6.926;2024-02-28T01:47:29;19.12;51.07
65239;SHT30;51827;51.186;6.926;2024-02-28T01:48:29;19.12;51.05
65239;SHT30;51827;51.186;6.926;2024-02-28T01:49:30;19.09;51.08
65239;SHT30;51827;51.186;6.926;2024-02-28T01:50:31;19.09;51.11
65239;SHT30;51827;51.186;6.926;2024-02-28T01:51:32;19.10;51.08
65239;SHT30;51827;51.186;6.926;2024-02-28T01:52:32;19.09;51.03
65239;SHT30;51827;51.186;6.926;2024-02-28T01:53:33;19.10;51.04
65239;SHT30;51827;51.186;6.926;2024-02-28T01:54:34;19.08;51.09
65239;SHT30;51827;51.186;6.926;2024-02-28T01:55:35;19.10;51.06
65239;SHT30;51827;51.186;6.926;2024-02-28T01:56:36;19.09;51.06
65239;SHT30;51827;51.186;6.926;2024-02-28T01:57:37;19.08;51.07
65239;SHT30;51827;51.186;6.926;2024-02-28T01:58:38;19.10;51.08
65239;SHT30;51827;51.186;6.926;2024-02-28T01:59:39;19.09;51.05
65239;SHT30;51827;51.186;6.926;2024-02-28T02:00:40;19.10;51.04
65239;SHT30;51827;51.186;6.926;2024-02-28T02:01:41;19.10;51.05
65239;SHT30;51827;51.186;6.926;2024-02-28T02:02:42;19.09;51.06
65239;SHT30;51827;51.186;6.926;2024-02-28T02:03:46;19.10;51.03
65239;SHT30;51827;51.186;6.926;2024-02-28T02:04:46;19.09;51.10
65239;SHT30;51827;51.186;6.926;2024-02-28T02:05:46;19.10;51.02
65239;SHT30;51827;51.186;6.926;2024-02-28T02:06:48;19.09;51.02
65239;SHT30;51827;51.186;6.926;2024-02-28T02:07:48;19.10;51.07
65239;SHT30;51827;51.186;6.926;2024-02-28T02:08:49;19.08;51.04
65239;SHT30;51827;51.186;6.926;2024-02-28T02:09:50;19.08;51.07
65239;SHT30;51827;51.186;6.926;2024-02-28T02:10:51;19.06;51.03
65239;SHT30;51827;51.186;6.926;2024-02-28T02:11:51;19.08;51.04
65239;SHT30;51827;51.186;6.926;2024-02-28T02:12:51;19.09;50.99
65239;SHT30;51827;51.186;6.926;2024-02-28T02:13:53;19.10;50.98
65239;SHT30;51827;51.186;6.926;2024-02-28T02:14:53;19.10;51.01
65239;SHT30;51827;51.186;6.926;2024-02-28T02:15:53;19.08;50.98
65239;SHT30;51827;51.186;6.926;2024-02-28T02:16:53;19.09;51.03
65239;SHT30;51827;51.186;6.926;2024-02-28T02:17:54;19.09;51.03
65239;SHT30;51827;51.186;6.926;2024-02-28T02:18:54;19.09;51.01
65239;SHT30;51827;51.186;6.926;2024-02-28T02:19:54;19.08;50.99
65239;SHT30;51827;51.186;6.926;2024-02-28T02:21:02;19.08;50.99
65239;SHT30;51827;51.186;6.926;2024-02-28T02:22:05;19.08;51.01
65239;SHT30;51827;51.186;6.926;2024-02-28T02:23:07;19.08;51.01
65239;SHT30;51827;51.186;6.926;2024-02-28T02:24:08;19.08;51.04
65239;SHT30;51827;51.186;6.926;2024-02-28T02:25:08;19.06;51.05
65239;SHT30;51827;51.186;6.926;2024-02-28T02:26:09;19.05;51.04
65239;SHT30;51827;51.186;6.926;2024-02-28T02:27:09;19.06;51.04
65239;SHT30;51827;51.186;6.926;2024-02-28T02:28:09;19.03;51.05
65239;SHT30;51827;51.186;6.926;2024-02-28T02:29:09;19.09;51.04
65239;SHT30;51827;51.186;6.926;2024-02-28T02:30:10;19.06;51.05
65239;SHT30;51827;51.186;6.926;2024-02-28T02:31:12;19.06;51.10
65239;SHT30;51827;51.186;6.926;2024-02-28T02:32:13;19.06;51.05
65239;SHT30;51827;51.186;6.926;2024-02-28T02:33:13;19.08;51.04
65239;SHT30;51827;51.186;6.926;2024-02-28T02:34:13;19.08;51.05
65239;SHT30;51827;51.186;6.926;2024-02-28T02:35:13;19.06;51.09
65239;SHT30;51827;51.186;6.926;2024-02-28T02:36:14;19.06;51.06
65239;SHT30;51827;51.186;6.926;2024-02-28T02:37:14;19.03;51.04
65239;SHT30;51827;51.186;6.926;2024-02-28T02:38:14;19.05;51.05
65239;SHT30;51827;51.186;6.926;2024-02-28T02:39:15;19.06;51.04
65239;SHT30;51827;51.186;6.926;2024-02-28T02:40:15;19.08;51.00
65239;SHT30;51827;51.186;6.926;2024-02-28T02:41:15;19.08;51.04
65239;SHT30;51827;51.186;6.926;2024-02-28T02:42:16;19.06;51.01
65239;SHT30;51827;51.186;6.926;2024-02-28T02:43:16;19.09;51.04
65239;SHT30;51827;51.186;6.926;2024-02-28T02:44:16;19.05;50.98
65239;SHT30;51827;51.186;6.926;2024-02-28T02:45:16;19.06;51.04
65239;SHT30;51827;51.186;6.926;2024-02-28T02:46:17;19.05;51.06
65239;SHT30;51827;51.186;6.926;2024-02-28T02:47:17;19.05;51.05
65239;SHT30;51827;51.186;6.926;2024-02-28T02:48:17;19.06;51.04
65239;SHT30;51827;51.186;6.926;2024-02-28T02:49:17;19.09;51.05
65239;SHT30;51827;51.186;6.926;2024-02-28T02:50:18;19.08;51.00
65239;SHT30;51827;51.186;6.926;2024-02-28T02:51:19;19.08;51.02
65239;SHT30;51827;51.186;6.926;2024-02-28T02:52:19;19.06;51.08
65239;SHT30;51827;51.186;6.926;2024-02-28T02:53:19;19.03;51.07
65239;SHT30;51827;51.186;6.926;2024-02-28T02:54:19;19.05;51.09
65239;SHT30;51827;51.186;6.926;2024-02-28T02:55:20;19.08;51.06
65239;SHT30;51827;51.186;6.926;2024-02-28T02:56:20;19.06;51.04
65239;SHT30;51827;51.186;6.926;2024-02-28T02:57:20;19.06;51.02
65239;SHT30;51827;51.186;6.926;2024-02-28T02:58:20;19.08;51.04
65239;SHT30;51827;51.186;6.926;2024-02-28T02:59:21;19.10;51.04
65239;SHT30;51827;51.186;6.926;2024-02-28T03:00:21;19.05;51.04
65239;SHT30;51827;51.186;6.926;2024-02-28T03:01:22;19.05;51.02
65239;SHT30;51827;51.186;6.926;2024-02-28T03:02:22;19.09;51.01
65239;SHT30;51827;51.186;6.926;2024-02-28T03:03:22;19.05;51.05
65239;SHT30;51827;51.186;6.926;2024-02-28T03:04:22;19.05;51.06
65239;SHT30;51827;51.186;6.926;2024-02-28T03:05:23;19.08;51.01
65239;SHT30;51827;51.186;6.926;2024-02-28T03:06:23;19.05;51.06
65239;SHT30;51827;51.186;6.926;2024-02-28T03:07:23;19.08;51.02
65239;SHT30;51827;51.186;6.926;2024-02-28T03:08:23;19.06;51.07
65239;SHT30;51827;51.186;6.926;2024-02-28T03:09:24;19.06;51.05
65239;SHT30;51827;51.186;6.926;2024-02-28T03:10:24;19.08;51.00
65239;SHT30;51827;51.186;6.926;2024-02-28T03:11:24;19.06;51.05
65239;SHT30;51827;51.186;6.926;2024-02-28T03:12:24;19.05;51.01
65239;SHT30;51827;51.186;6.926;2024-02-28T03:13:24;19.06;51.06
65239;SHT30;51827;51.186;6.926;2024-02-28T03:14:25;19.03;51.02
65239;SHT30;51827;51.186;6.926;2024-02-28T03:15:26;19.08;51.04
65239;SHT30;51827;51.186;6.926;2024-02-28T03:16:26;19.06;51.06
65239;SHT30;51827;51.186;6.926;2024-02-28T03:17:26;19.06;51.05
65239;SHT30;51827;51.186;6.926;2024-02-28T03:18:26;19.05;51.07
65239;SHT30;51827;51.186;6.926;2024-02-28T03:19:27;19.05;51.05
65239;SHT30;51827;51.186;6.926;2024-02-28T03:20:27;19.06;51.05
65239;SHT30;51827;51.186;6.926;2024-02-28T03:21:28;19.05;51.07
65239;SHT30;51827;51.186;6.926;2024-02-28T03:22:28;19.03;51.10
65239;SHT30;51827;51.186;6.926;2024-02-28T03:23:28;19.05;51.07
65239;SHT30;51827;51.186;6.926;2024-02-28T03:24:28;19.08;51.10
65239;SHT30;51827;51.186;6.926;2024-02-28T03:25:28;19.08;51.05
65239;SHT30;51827;51.186;6.926;2024-02-28T03:26:29;19.06;51.06
65239;SHT30;51827;51.186;6.926;2024-02-28T03:27:29;19.06;51.08
65239;SHT30;51827;51.186;6.926;2024-02-28T03:28:29;19.06;51.05
65239;SHT30;51827;51.186;6.926;2024-02-28T03:29:30;19.06;51.12
65239;SHT30;51827;51.186;6.926;2024-02-28T03:30:30;19.08;51.06
65239;SHT30;51827;51.186;6.926;2024-02-28T03:31:30;19.08;51.12
65239;SHT30;51827;51.186;6.926;2024-02-28T03:32:30;19.05;51.15
65239;SHT30;51827;51.186;6.926;2024-02-28T03:33:31;19.05;51.10
65239;SHT30;51827;51.186;6.926;2024-02-28T03:34:31;19.05;51.12
65239;SHT30;51827;51.186;6.926;2024-02-28T03:35:31;19.03;51.10
65239;SHT30;51827;51.186;6.926;2024-02-28T03:36:31;19.06;51.06
65239;SHT30;51827;51.186;6.926;2024-02-28T03:37:32;19.05;51.13
65239;SHT30;51827;51.186;6.926;2024-02-28T03:38:32;19.02;51.06
65239;SHT30;51827;51.186;6.926;2024-02-28T03:39:32;19.08;51.12
65239;SHT30;51827;51.186;6.926;2024-02-28T03:40:32;19.05;51.11
65239;SHT30;51827;51.186;6.926;2024-02-28T03:41:33;19.06;51.14
65239;SHT30;51827;51.186;6.926;2024-02-28T03:42:33;19.05;51.13
65239;SHT30;51827;51.186;6.926;2024-02-28T03:43:33;19.03;51.14
65239;SHT30;51827;51.186;6.926;2024-02-28T03:44:33;19.05;51.14
65239;SHT30;51827;51.186;6.926;2024-02-28T03:45:37;19.05;51.11
65239;SHT30;51827;51.186;6.926;2024-02-28T03:46:37;19.06;51.11
65239;SHT30;51827;51.186;6.926;2024-02-28T03:47:38;19.06;51.11
65239;SHT30;51827;51.186;6.926;2024-02-28T03:48:38;19.08;51.11
65239;SHT30;51827;51.186;6.926;2024-02-28T03:49:38;19.06;51.12
65239;SHT30;51827;51.186;6.926;2024-02-28T03:50:38;19.06;51.15
65239;SHT30;51827;51.186;6.926;2024-02-28T03:51:40;19.05;51.19
65239;SHT30;51827;51.186;6.926;2024-02-28T03:52:40;19.05;51.14
65239;SHT30;51827;51.186;6.926;2024-02-28T03:53:40;19.05;51.16
65239;SHT30;51827;51.186;6.926;2024-02-28T03:54:42;19.08;51.18
65239;SHT30;51827;51.186;6.926;2024-02-28T03:55:43;19.05;51.14
65239;SHT30;51827;51.186;6.926;2024-02-28T03:56:43;19.02;51.14
65239;SHT30;51827;51.186;6.926;2024-02-28T03:57:46;19.05;51.16
65239;SHT30;51827;51.186;6.926;2024-02-28T03:58:47;19.03;51.18
65239;SHT30;51827;51.186;6.926;2024-02-28T03:59:47;19.03;51.16
65239;SHT30;51827;51.186;6.926;2024-02-28T04:00:47;19.03;51.14
65239;SHT30;51827;51.186;6.926;2024-02-28T04:01:47;19.03;51.20
65239;SHT30;51827;51.186;6.926;2024-02-28T04:02:48;19.03;51.11
65239;SHT30;51827;51.186;6.926;2024-02-28T04:03:48;19.05;51.16
65239;SHT30;51827;51.186;6.926;2024-02-28T04:04:48;19.05;51.17
65239;SHT30;51827;51.186;6.926;2024-02-28T04:05:48;19.03;51.13
65239;SHT30;51827;51.186;6.926;2024-02-28T04:06:49;19.02;51.17
65239;SHT30;51827;51.186;6.926;2024-02-28T04:07:49;19.05;51.18
65239;SHT30;51827;51.186;6.926;2024-02-28T04:08:49;19.05;51.13
65239;SHT30;51827;51.186;6.926;2024-02-28T04:09:49;19.06;51.19
65239;SHT30;51827;51.186;6.926;2024-02-28T04:10:50;19.03;51.19
65239;SHT30;51827;51.186;6.926;2024-02-28T04:11:50;19.05;51.19
65239;SHT30;51827;51.186;6.926;2024-02-28T04:12:50;19.05;51.17
65239;SHT30;51827;51.186;6.926;2024-02-28T04:13:50;19.03;51.20
65239;SHT30;51827;51.186;6.926;2024-02-28T04:14:51;19.05;51.20
65239;SHT30;51827;51.186;6.926;2024-02-28T04:15:51;19.02;51.15
65239;SHT30;51827;51.186;6.926;2024-02-28T04:16:51;19.05;51.20
65239;SHT30;51827;51.186;6.926;2024-02-28T04:17:52;19.03;51.26
65239;SHT30;51827;51.186;6.926;2024-02-28T04:18:52;19.03;51.22
65239;SHT30;51827;51.186;6.926;2024-02-28T04:19:52;19.03;51.26
65239;SHT30;51827;51.186;6.926;2024-02-28T04:20:53;19.03;51.26
65239;SHT30;51827;51.186;6.926;2024-02-28T04:21:53;19.00;51.26
65239;SHT30;51827;51.186;6.926;2024-02-28T04:22:53;19.02;51.24
65239;SHT30;51827;51.186;6.926;2024-02-28T04:23:53;19.03;51.28
65239;SHT30;51827;51.186;6.926;2024-02-28T04:24:53;19.03;51.26
65239;SHT30;51827;51.186;6.926;2024-02-28T04:25:54;19.03;51.28
65239;SHT30;51827;51.186;6.926;2024-02-28T04:26:54;19.02;51.29
65239;SHT30;51827;51.186;6.926;2024-02-28T04:27:54;19.03;51.28
65239;SHT30;51827;51.186;6.926;2024-02-28T04:28:55;19.02;51.35
65239;SHT30;51827;51.186;6.926;2024-02-28T04:29:55;19.03;51.33
65239;SHT30;51827;51.186;6.926;2024-02-28T04:30:56;19.00;51.44
65239;SHT30;51827;51.186;6.926;2024-02-28T04:31:56;19.02;51.91
65239;SHT30;51827;51.186;6.926;2024-02-28T04:32:56;19.05;51.88
65239;SHT30;51827;51.186;6.926;2024-02-28T04:33:57;19.02;51.79
65239;SHT30;51827;51.186;6.926;2024-02-28T04:34:57;19.02;51.69
65239;SHT30;51827;51.186;6.926;2024-02-28T04:35:57;19.03;51.73
65239;SHT30;51827;51.186;6.926;2024-02-28T04:36:57;19.05;51.76
65239;SHT30;51827;51.186;6.926;2024-02-28T04:37:57;19.02;51.77
65239;SHT30;51827;51.186;6.926;2024-02-28T04:38:58;19.02;51.71
65239;SHT30;51827;51.186;6.926;2024-02-28T04:39:58;19.02;51.75
65239;SHT30;51827;51.186;6.926;2024-02-28T04:40:58;19.00;51.75
65239;SHT30;51827;51.186;6.926;2024-02-28T04:41:58;19.02;51.75
65239;SHT30;51827;51.186;6.926;2024-02-28T04:42:59;19.02;51.75
65239;SHT30;51827;51.186;6.926;2024-02-28T04:43:59;19.02;51.87
65239;SHT30;51827;51.186;6.926;2024-02-28T04:45:00;19.05;52.95
65239;SHT30;51827;51.186;6.926;2024-02-28T04:46:01;19.05;53.00
65239;SHT30;51827;51.186;6.926;2024-02-28T04:47:01;19.05;52.84
65239;SHT30;51827;51.186;6.926;2024-02-28T04:48:02;19.02;52.36
65239;SHT30;51827;51.186;6.926;2024-02-28T04:49:02;19.03;52.35
65239;SHT30;51827;51.186;6.926;2024-02-28T04:50:03;19.03;52.33
65239;SHT30;51827;51.186;6.926;2024-02-28T04:51:03;19.05;52.26
65239;SHT30;51827;51.186;6.926;2024-02-28T04:52:04;19.03;52.20
65239;SHT30;51827;51.186;6.926;2024-02-28T04:53:04;19.05;52.15
65239;SHT30;51827;51.186;6.926;2024-02-28T04:54:04;19.06;52.15
65239;SHT30;51827;51.186;6.926;2024-02-28T04:55:05;19.06;52.07
65239;SHT30;51827;51.186;6.926;2024-02-28T04:56:05;19.06;52.04
65239;SHT30;51827;51.186;6.926;2024-02-28T04:57:06;19.05;52.00
65239;SHT30;51827;51.186;6.926;2024-02-28T04:58:06;19.06;51.96
65239;SHT30;51827;51.186;6.926;2024-02-28T04:59:07;19.05;51.96
65239;SHT30;51827;51.186;6.926;2024-02-28T05:00:07;19.08;52.32
65239;SHT30;51827;51.186;6.926;2024-02-28T05:01:08;19.08;53.26
65239;SHT30;51827;51.186;6.926;2024-02-28T05:02:08;19.06;53.29
65239;SHT30;51827;51.186;6.926;2024-02-28T05:03:08;19.06;53.39
65239;SHT30;51827;51.186;6.926;2024-02-28T05:04:09;19.08;53.25
65239;SHT30;51827;51.186;6.926;2024-02-28T05:05:09;19.08;53.19
65239;SHT30;51827;51.186;6.926;2024-02-28T05:06:09;19.08;52.77
65239;SHT30;51827;51.186;6.926;2024-02-28T05:07:10;19.08;52.54
65239;SHT30;51827;51.186;6.926;2024-02-28T05:08:10;19.09;52.44
65239;SHT30;51827;51.186;6.926;2024-02-28T05:09:10;19.08;52.36
65239;SHT30;51827;51.186;6.926;2024-02-28T05:10:10;19.06;52.34
65239;SHT30;51827;51.186;6.926;2024-02-28T05:11:11;19.06;52.44
65239;SHT30;51827;51.186;6.926;2024-02-28T05:12:11;19.08;52.42
65239;SHT30;51827;51.186;6.926;2024-02-28T05:13:11;19.08;52.35
65239;SHT30;51827;51.186;6.926;2024-02-28T05:14:11;19.08;52.20
65239;SHT30;51827;51.186;6.926;2024-02-28T05:15:12;19.05;52.15
65239;SHT30;51827;51.186;6.926;2024-02-28T05:16:13;19.06;52.15
65239;SHT30;51827;51.186;6.926;2024-02-28T05:17:13;19.08;52.25
65239;SHT30;51827;51.186;6.926;2024-02-28T05:18:14;19.08;52.56
65239;SHT30;51827;51.186;6.926;2024-02-28T05:19:14;19.09;52.58
65239;SHT30;51827;51.186;6.926;2024-02-28T05:20:14;19.09;52.64
65239;SHT30;51827;51.186;6.926;2024-02-28T05:21:14;19.09;52.61
65239;SHT30;51827;51.186;6.926;2024-02-28T05:22:15;19.08;52.30
65239;SHT30;51827;51.186;6.926;2024-02-28T05:23:15;19.06;52.21
65239;SHT30;51827;51.186;6.926;2024-02-28T05:24:15;19.08;52.19
65239;SHT30;51827;51.186;6.926;2024-02-28T05:25:16;19.08;52.07
65239;SHT30;51827;51.186;6.926;2024-02-28T05:26:16;19.09;52.03
65239;SHT30;51827;51.186;6.926;2024-02-28T05:27:16;19.08;52.03
65239;SHT30;51827;51.186;6.926;2024-02-28T05:28:16;19.08;51.95
65239;SHT30;51827;51.186;6.926;2024-02-28T05:29:16;19.06;51.92
65239;SHT30;51827;51.186;6.926;2024-02-28T05:30:17;19.05;51.90
65239;SHT30;51827;51.186;6.926;2024-02-28T05:31:24;19.05;51.87
65239;SHT30;51827;51.186;6.926;2024-02-28T05:32:25;19.03;51.83
65239;SHT30;51827;51.186;6.926;2024-02-28T05:33:25;19.06;51.78
65239;SHT30;51827;51.186;6.926;2024-02-28T05:34:25;19.06;51.70
65239;SHT30;51827;51.186;6.926;2024-02-28T05:35:25;19.05;51.73
65239;SHT30;51827;51.186;6.926;2024-02-28T05:36:27;19.05;51.71
65239;SHT30;51827;51.186;6.926;2024-02-28T05:37:27;19.06;51.67
65239;SHT30;51827;51.186;6.926;2024-02-28T05:38:27;19.06;51.65
65239;SHT30;51827;51.186;6.926;2024-02-28T05:39:28;19.06;51.64
65239;SHT30;51827;51.186;6.926;2024-02-28T05:40:28;19.00;51.60
65239;SHT30;51827;51.186;6.926;2024-02-28T05:41:28;19.05;51.58
65239;SHT30;51827;51.186;6.926;2024-02-28T05:42:29;19.03;51.54
65239;SHT30;51827;51.186;6.926;2024-02-28T05:43:29;19.05;51.54
65239;SHT30;51827;51.186;6.926;2024-02-28T05:44:29;19.05;51.49
65239;SHT30;51827;51.186;6.926;2024-02-28T05:45:29;19.02;51.51
65239;SHT30;51827;51.186;6.926;2024-02-28T05:46:30;19.05;51.49
65239;SHT30;51827;51.186;6.926;2024-02-28T05:47:30;19.05;51.48
65239;SHT30;51827;51.186;6.926;2024-02-28T05:48:30;19.06;51.42
65239;SHT30;51827;51.186;6.926;2024-02-28T05:49:30;19.06;51.43
65239;SHT30;51827;51.186;6.926;2024-02-28T05:50:31;19.03;51.39
65239;SHT30;51827;51.186;6.926;2024-02-28T05:51:31;19.05;51.36
65239;SHT30;51827;51.186;6.926;2024-02-28T05:52:31;19.00;51.39
65239;SHT30;51827;51.186;6.926;2024-02-28T05:53:31;19.03;51.36
65239;SHT30;51827;51.186;6.926;2024-02-28T05:54:31;19.03;51.33
65239;SHT30;51827;51.186;6.926;2024-02-28T05:55:32;19.03;51.39
65239;SHT30;51827;51.186;6.926;2024-02-28T05:56:32;19.03;51.36
65239;SHT30;51827;51.186;6.926;2024-02-28T05:57:32;19.03;51.30
65239;SHT30;51827;51.186;6.926;2024-02-28T05:58:32;19.03;51.32
65239;SHT30;51827;51.186;6.926;2024-02-28T05:59:33;19.02;51.27
65239;SHT30;51827;51.186;6.926;2024-02-28T06:00:34;19.03;51.27
65239;SHT30;51827;51.186;6.926;2024-02-28T06:01:34;19.03;51.22
65239;SHT30;51827;51.186;6.926;2024-02-28T06:02:36;19.02;51.24
65239;SHT30;51827;51.186;6.926;2024-02-28T06:03:37;19.02;51.22
65239;SHT30;51827;51.186;6.926;2024-02-28T06:04:37;19.02;51.24
65239;SHT30;51827;51.186;6.926;2024-02-28T06:05:37;19.03;51.22
65239;SHT30;51827;51.186;6.926;2024-02-28T06:06:38;19.02;51.23
65239;SHT30;51827;51.186;6.926;2024-02-28T06:07:38;19.02;51.20
65239;SHT30;51827;51.186;6.926;2024-02-28T06:08:39;19.02;51.18
65239;SHT30;51827;51.186;6.926;2024-02-28T06:09:39;19.02;51.22
65239;SHT30;51827;51.186;6.926;2024-02-28T06:10:40;19.03;51.18
65239;SHT30;51827;51.186;6.926;2024-02-28T06:11:40;18.99;51.15
65239;SHT30;51827;51.186;6.926;2024-02-28T06:12:40;19.02;51.17
65239;SHT30;51827;51.186;6.926;2024-02-28T06:13:41;19.02;51.07
65239;SHT30;51827;51.186;6.926;2024-02-28T06:14:41;19.03;51.08
65239;SHT30;51827;51.186;6.926;2024-02-28T06:15:41;19.00;51.06
65239;SHT30;51827;51.186;6.926;2024-02-28T06:16:41;19.02;51.07
65239;SHT30;51827;51.186;6.926;2024-02-28T06:17:42;19.02;51.02
65239;SHT30;51827;51.186;6.926;2024-02-28T06:18:42;19.02;51.05
65239;SHT30;51827;51.186;6.926;2024-02-28T06:19:42;19.03;51.03
65239;SHT30;51827;51.186;6.926;2024-02-28T06:20:42;19.03;51.01
65239;SHT30;51827;51.186;6.926;2024-02-28T06:21:43;19.00;50.99